| time (UTC) | temp C | wind direction | speed KPH | gust KPH | rain 1hr cm | rain 24hr cm | rain mn cm | humidity % | barometer mb |
| 20260831103304 | 25 | 203 | 11.3 | 16.1 | 0.00 | 0.00 | 0.00 | 68 | 1011.5 |
| 20260831102305 | 25 | 203 | 9.7 | 16.1 | 0.00 | 0.00 | 0.00 | 69 | 1011.3 |
| 20260831101303 | 25 | 180 | 6.4 | 11.3 | 0.00 | 0.00 | 0.00 | 68 | 1011.4 |
| 20260831100324 | 25 | 180 | 8.0 | 14.5 | 0.00 | 0.00 | 0.00 | 68 | 1011.4 |
| 20260831095323 | 25 | 203 | 6.4 | 9.7 | 0.00 | 0.00 | 0.00 | 69 | 1011.2 |
| 20260831094303 | 25 | 180 | 4.8 | 12.9 | 0.00 | 0.00 | 0.00 | 69 | 1011.1 |
| 20260831093303 | 25 | 135 | 6.4 | 11.3 | 0.00 | 0.00 | 0.00 | 69 | 1011.1 |
| 20260831092306 | 25 | 158 | 6.4 | 16.1 | 0.00 | 0.00 | 0.00 | 69 | 1011.1 |
| 20260831091303 | 25 | 158 | 4.8 | 9.7 | 0.00 | 0.00 | 0.00 | 69 | 1011.1 |
| 20260831090404 | 25 | 180 | 3.2 | 4.8 | 0.00 | 0.00 | 0.00 | 68 | 1011.1 |
| 20260831085306 | 25 | 203 | 4.8 | 8.0 | 0.00 | 0.00 | 0.00 | 68 | 1011.1 |
| 20260831084308 | 25 | 158 | 4.8 | 6.4 | 0.00 | 0.00 | 0.00 | 67 | 1011.1 |
| 20260831083303 | 25 | 180 | 4.8 | 6.4 | 0.00 | 0.00 | 0.00 | 66 | 1011.2 |
| 20260831082323 | 25 | 180 | 3.2 | 8.0 | 0.00 | 0.00 | 0.00 | 66 | 1011.1 |
| 20260831081304 | 26 | 203 | 6.4 | 11.3 | 0.00 | 0.00 | 0.00 | 65 | 1011.1 |
| 20260831080303 | 26 | 203 | 8.0 | 14.5 | 0.00 | 0.00 | 0.00 | 65 | 1011.1 |
| 20260831075306 | 26 | 135 | 1.6 | 4.8 | 0.00 | 0.00 | 0.00 | 65 | 1011.0 |
| 20260831074303 | 26 | 180 | 3.2 | 9.7 | 0.00 | 0.00 | 0.00 | 64 | 1010.8 |
| 20260831073303 | 26 | 203 | 4.8 | 8.0 | 0.00 | 0.00 | 0.00 | 64 | 1010.8 |
| 20260831072306 | 26 | 158 | 1.6 | 6.4 | 0.00 | 0.00 | 0.00 | 64 | 1010.7 |
| 20260831071324 | 26 | 158 | 3.2 | 4.8 | 0.00 | 0.00 | 0.00 | 64 | 1010.6 |
| 20260831070303 | 26 | 180 | 4.8 | 9.7 | 0.00 | 0.00 | 0.00 | 63 | 1010.6 |
| 20260831065306 | 26 | 180 | 1.6 | 3.2 | 0.00 | 0.00 | 0.00 | 62 | 1010.5 |
| 20260831064323 | 26 | 158 | 1.6 | 3.2 | 0.00 | 0.00 | 0.00 | 62 | 1010.4 |
| 20260831063303 | 26 | 180 | 4.8 | 8.0 | 0.00 | 0.00 | 0.00 | 62 | 1010.3 |
| 20260831062305 | 26 | 180 | 1.6 | 3.2 | 0.00 | 0.00 | 0.00 | 62 | 1010.2 |
| 20260831061303 | 27 | 158 | 1.6 | 3.2 | 0.00 | 0.00 | 0.00 | 61 | 1010.1 |
| 20260831060303 | 27 | 180 | 4.8 | 11.3 | 0.00 | 0.00 | 0.00 | 60 | 1010.1 |
| 20260831055306 | 27 | 158 | 4.8 | 9.7 | 0.00 | 0.00 | 0.00 | 59 | 1010.1 |
| 20260831054303 | 27 | 158 | 4.8 | 6.4 | 0.00 | 0.00 | 0.00 | 59 | 1010.1 |
| 20260831053303 | 27 | 158 | 4.8 | 8.0 | 0.00 | 0.00 | 0.00 | 58 | 1010.0 |
| 20260831052306 | 27 | 158 | 4.8 | 8.0 | 0.00 | 0.00 | 0.00 | 58 | 1010.0 |
| 20260831051303 | 28 | 135 | 8.0 | 14.5 | 0.00 | 0.00 | 0.00 | 58 | 1010.0 |
| 20260831050303 | 28 | 158 | 8.0 | 16.1 | 0.00 | 0.00 | 0.00 | 57 | 1009.9 |
| 20260831045423 | 28 | 180 | 6.4 | 9.7 | 0.00 | 0.00 | 0.00 | 57 | 1009.8 |
| 20260831044404 | 28 | 158 | 6.4 | 11.3 | 0.00 | 0.00 | 0.00 | 57 | 1009.7 |
| 20260831043425 | 28 | 180 | 6.4 | 16.1 | 0.00 | 0.00 | 0.00 | 57 | 1009.7 |
| 20260831042403 | 28 | 180 | 8.0 | 12.9 | 0.00 | 0.00 | 0.00 | 58 | 1009.7 |
| 20260831041403 | 28 | 158 | 6.4 | 9.7 | 0.00 | 0.00 | 0.00 | 58 | 1009.7 |
| 20260831040403 | 28 | 135 | 6.4 | 16.1 | 0.00 | 0.00 | 0.00 | 59 | 1009.7 |
| 20260831035403 | 28 | 158 | 6.4 | 11.3 | 0.00 | 0.00 | 0.00 | 58 | 1009.9 |
| 20260831034424 | 28 | 135 | 4.8 | 9.7 | 0.00 | 0.00 | 0.00 | 59 | 1009.9 |
| 20260831033403 | 28 | 158 | 6.4 | 14.5 | 0.00 | 0.00 | 0.00 | 60 | 1009.8 |
| 20260831032403 | 27 | 158 | 3.2 | 6.4 | 0.00 | 0.00 | 0.00 | 61 | 1009.7 |
| 20260831031403 | 27 | 180 | 3.2 | 8.0 | 0.00 | 0.00 | 0.00 | 62 | 1009.6 |
| 20260831030423 | 27 | 135 | 3.2 | 4.8 | 0.00 | 0.00 | 0.00 | 63 | 1009.6 |
| 20260831025403 | 27 | 135 | 4.8 | 8.0 | 0.00 | 0.00 | 0.00 | 62 | 1009.5 |
| 20260831024423 | 27 | 158 | 4.8 | 8.0 | 0.00 | 0.00 | 0.00 | 62 | 1009.4 |
| 20260831023403 | 28 | 135 | 1.6 | 4.8 | 0.00 | 0.00 | 0.00 | 60 | 1009.4 |
| 20260831022403 | 28 | 135 | 4.8 | 8.0 | 0.00 | 0.00 | 0.00 | 60 | 1009.3 |
| 20260831021403 | 28 | 158 | 1.6 | 4.8 | 0.00 | 0.00 | 0.00 | 59 | 1009.2 |
| 20260831020403 | 29 | 158 | 3.2 | 6.4 | 0.00 | 0.00 | 0.00 | 58 | 1009.1 |
| 20260831015403 | 29 | 158 | 3.2 | 4.8 | 0.00 | 0.00 | 0.00 | 57 | 1009.0 |
| 20260831014403 | 29 | 158 | 3.2 | 6.4 | 0.00 | 0.00 | 0.00 | 57 | 1008.8 |
| 20260831013403 | 29 | 158 | 4.8 | 9.7 | 0.00 | 0.00 | 0.00 | 57 | 1008.7 |
| 20260831012403 | 30 | 158 | 4.8 | 6.4 | 0.00 | 0.00 | 0.00 | 56 | 1008.6 |
| 20260831011403 | 30 | 158 | 3.2 | 8.0 | 0.00 | 0.00 | 0.00 | 55 | 1008.6 |
| 20260831010403 | 31 | 158 | 1.6 | 4.8 | 0.00 | 0.00 | 0.00 | 54 | 1008.6 |
| 20260831005403 | 31 | 180 | 3.2 | 4.8 | 0.00 | 0.00 | 0.00 | 53 | 1008.4 |
| 20260831004403 | 31 | 203 | 3.2 | 4.8 | 0.00 | 0.00 | 0.00 | 53 | 1008.4 |
| 20260831003403 | 32 | 180 | 3.2 | 9.7 | 0.00 | 0.00 | 0.00 | 51 | 1008.5 |
| 20260831002403 | 32 | 113 | 1.6 | 4.8 | 0.00 | 0.00 | 0.00 | 51 | 1008.4 |
| 20260831001403 | 33 | 158 | 4.8 | 6.4 | 0.00 | 0.00 | 0.00 | 50 | 1008.4 |
| 20260831000403 | 33 | 180 | 4.8 | 9.7 | 0.00 | 0.00 | 0.00 | 47 | 1008.3 |
| 20260830235423 | 34 | 135 | 6.4 | 12.9 | 0.00 | 0.00 | 0.00 | 46 | 1008.2 |
| 20260830234403 | 34 | 158 | 8.0 | 12.9 | 0.00 | 0.00 | 0.00 | 46 | 1008.2 |
| 20260830233403 | 35 | 180 | 8.0 | 11.3 | 0.00 | 0.00 | 0.00 | 45 | 1008.2 |
| 20260830232403 | 35 | 158 | 6.4 | 9.7 | 0.00 | 0.00 | 0.00 | 44 | 1008.4 |
| 20260830231403 | 35 | 158 | 9.7 | 17.7 | 0.00 | 0.00 | 0.00 | 45 | 1008.3 |
| 20260830230403 | 35 | 180 | 9.7 | 12.9 | 0.00 | 0.00 | 0.00 | 45 | 1008.2 |
| 20260830225403 | 36 | 135 | 8.0 | 14.5 | 0.00 | 0.00 | 0.00 | 43 | 1008.2 |
| 20260830224423 | 36 | 180 | 9.7 | 37.0 | 0.00 | 0.00 | 0.00 | 42 | 1008.2 |
| 20260830223423 | 36 | 158 | 9.7 | 16.1 | 0.00 | 0.00 | 0.00 | 44 | 1008.2 |
| 20260830222403 | 36 | 158 | 11.3 | 17.7 | 0.00 | 0.00 | 0.00 | 42 | 1008.2 |
| 20260830221402 | 36 | 158 | 9.7 | 16.1 | 0.00 | 0.00 | 0.00 | 42 | 1008.2 |
| 20260830220423 | 36 | 180 | 14.5 | 24.1 | 0.00 | 0.00 | 0.00 | 43 | 1008.3 |
| 20260830215403 | 36 | 203 | 12.9 | 20.9 | 0.00 | 0.00 | 0.00 | 43 | 1008.3 |
| 20260830214403 | 36 | 135 | 11.3 | 19.3 | 0.00 | 0.00 | 0.00 | 42 | 1008.4 |
| 20260830213423 | 36 | 203 | 20.9 | 29.0 | 0.00 | 0.00 | 0.00 | 43 | 1008.6 |
| 20260830212423 | 36 | 180 | 9.7 | 16.1 | 0.00 | 0.00 | 0.00 | 43 | 1008.7 |
| 20260830211402 | 36 | 225 | 8.0 | 12.9 | 0.00 | 0.00 | 0.00 | 46 | 1008.7 |
| 20260830210403 | 36 | 180 | 17.7 | 25.7 | 0.00 | 0.00 | 0.00 | 44 | 1008.8 |
| 20260830205402 | 36 | 158 | 11.3 | 25.7 | 0.00 | 0.00 | 0.00 | 47 | 1009.0 |
| 20260830204402 | 36 | 180 | 17.7 | 27.4 | 0.00 | 0.00 | 0.00 | 44 | 1009.1 |
| 20260830203402 | 36 | 203 | 11.3 | 22.5 | 0.00 | 0.00 | 0.00 | 45 | 1009.2 |
| 20260830202403 | 36 | 203 | 17.7 | 25.7 | 0.00 | 0.00 | 0.00 | 44 | 1009.2 |
| 20260830201403 | 36 | 180 | 11.3 | 20.9 | 0.00 | 0.00 | 0.00 | 45 | 1009.5 |
| 20260830200402 | 36 | 180 | 17.7 | 27.4 | 0.00 | 0.00 | 0.00 | 46 | 1009.5 |
| 20260830195402 | 36 | 203 | 16.1 | 20.9 | 0.00 | 0.00 | 0.00 | 46 | 1009.6 |
| 20260830194402 | 35 | 180 | 11.3 | 19.3 | 0.00 | 0.00 | 0.00 | 48 | 1009.7 |
| 20260830193402 | 35 | 158 | 19.3 | 32.2 | 0.00 | 0.00 | 0.00 | 49 | 1009.9 |
| 20260830192402 | 35 | 158 | 12.9 | 20.9 | 0.00 | 0.00 | 0.00 | 48 | 1009.9 |
| 20260830191402 | 35 | 203 | 12.9 | 27.4 | 0.00 | 0.00 | 0.00 | 48 | 1010.1 |
| 20260830190404 | 35 | 180 | 14.5 | 19.3 | 0.00 | 0.00 | 0.00 | 50 | 1010.1 |
| 20260830185403 | 35 | 180 | 8.0 | 17.7 | 0.00 | 0.00 | 0.00 | 50 | 1010.1 |
| 20260830184402 | 34 | 180 | 16.1 | 25.7 | 0.00 | 0.00 | 0.00 | 50 | 1010.2 |
| 20260830183402 | 34 | 203 | 11.3 | 16.1 | 0.00 | 0.00 | 0.00 | 52 | 1010.3 |
| 20260830182402 | 34 | 203 | 8.0 | 17.7 | 0.00 | 0.00 | 0.00 | 53 | 1010.4 |
| 20260830181402 | 33 | 203 | 9.7 | 14.5 | 0.00 | 0.00 | 0.00 | 53 | 1010.4 |
| 20260830180402 | 33 | 180 | 12.9 | 20.9 | 0.00 | 0.00 | 0.00 | 53 | 1010.4 |
| 20260830175402 | 33 | 203 | 9.7 | 22.5 | 0.00 | 0.00 | 0.00 | 55 | 1010.5 |
| 20260830174402 | 33 | 225 | 20.9 | 32.2 | 0.00 | 0.00 | 0.00 | 54 | 1010.7 |
| 20260830173422 | 32 | 203 | 17.7 | 22.5 | 0.00 | 0.00 | 0.00 | 53 | 1010.7 |
| 20260830172422 | 32 | 180 | 17.7 | 22.5 | 0.00 | 0.00 | 0.00 | 54 | 1010.9 |
| 20260830171402 | 32 | 203 | 12.9 | 19.3 | 0.00 | 0.00 | 0.00 | 57 | 1011.0 |
| 20260830170402 | 31 | 180 | 12.9 | 19.3 | 0.00 | 0.00 | 0.00 | 56 | 1011.0 |
| 20260830165402 | 31 | 180 | 17.7 | 27.4 | 0.00 | 0.00 | 0.00 | 57 | 1011.2 |
| 20260830164402 | 30 | 203 | 6.4 | 16.1 | 0.00 | 0.00 | 0.00 | 60 | 1011.3 |
| 20260830163403 | 30 | 180 | 9.7 | 14.5 | 0.00 | 0.00 | 0.00 | 60 | 1011.2 |
| 20260830162402 | 30 | 180 | 16.1 | 24.1 | 0.00 | 0.00 | 0.00 | 59 | 1011.3 |
| 20260830161402 | 29 | 180 | 9.7 | 14.5 | 0.00 | 0.00 | 0.00 | 60 | 1011.2 |
| 20260830160402 | 28 | 203 | 16.1 | 22.5 | 0.00 | 0.00 | 0.00 | 61 | 1011.2 |
| 20260830155402 | 28 | 180 | 9.7 | 17.7 | 0.00 | 0.00 | 0.00 | 62 | 1011.1 |
| 20260830154402 | 28 | 180 | 9.7 | 19.3 | 0.00 | 0.00 | 0.00 | 62 | 1011.0 |
| 20260830153402 | 28 | 180 | 16.1 | 25.7 | 0.00 | 0.00 | 0.00 | 62 | 1010.9 |
| 20260830152402 | 28 | 203 | 12.9 | 16.1 | 0.00 | 0.00 | 0.00 | 62 | 1010.8 |
| 20260830151402 | 27 | 180 | 14.5 | 19.3 | 0.00 | 0.00 | 0.00 | 64 | 1010.7 |
| 20260830150402 | 27 | 180 | 12.9 | 20.9 | 0.00 | 0.00 | 0.00 | 65 | 1010.6 |
| 20260830145402 | 27 | 180 | 12.9 | 17.7 | 0.00 | 0.00 | 0.00 | 64 | 1010.6 |
| 20260830144402 | 27 | 203 | 12.9 | 16.1 | 0.00 | 0.00 | 0.00 | 66 | 1010.6 |
| 20260830143402 | 26 | 203 | 12.9 | 25.7 | 0.00 | 0.00 | 0.00 | 66 | 1010.8 |
| 20260830142442 | 26 | 203 | 11.3 | 22.5 | 0.00 | 0.00 | 0.00 | 65 | 1010.8 |
| 20260830141401 | 26 | 180 | 12.9 | 19.3 | 0.00 | 0.00 | 0.00 | 66 | 1010.8 |
| 20260830140401 | 26 | 180 | 11.3 | 19.3 | 0.00 | 0.00 | 0.00 | 67 | 1011.0 |
| 20260830135401 | 25 | 180 | 11.3 | 19.3 | 0.00 | 0.00 | 0.00 | 67 | 1010.9 |
| 20260830134402 | 25 | 180 | 9.7 | 19.3 | 0.00 | 0.00 | 0.00 | 67 | 1010.8 |
| 20260830133422 | 25 | 180 | 17.7 | 22.5 | 0.00 | 0.00 | 0.00 | 67 | 1010.8 |
| 20260830132422 | 25 | 158 | 14.5 | 27.4 | 0.00 | 0.00 | 0.00 | 67 | 1010.9 |
| 20260830131402 | 25 | 180 | 12.9 | 19.3 | 0.00 | 0.00 | 0.00 | 68 | 1010.9 |
| 20260830130401 | 24 | 180 | 14.5 | 24.1 | 0.00 | 0.00 | 0.00 | 68 | 1011.3 |
| 20260830125422 | 24 | 225 | 11.3 | 17.7 | 0.00 | 0.00 | 0.00 | 68 | 1011.4 |
| 20260830124402 | 24 | 203 | 11.3 | 17.7 | 0.00 | 0.00 | 0.00 | 68 | 1011.3 |
| 20260830123304 | 24 | 180 | 12.9 | 19.3 | 0.00 | 0.00 | 0.00 | 68 | 1011.4 |
| 20260830122344 | 23 | 180 | 12.9 | 19.3 | 0.00 | 0.00 | 0.00 | 68 | 1011.3 |
| 20260830121303 | 23 | 180 | 8.0 | 19.3 | 0.00 | 0.00 | 0.00 | 69 | 1011.4 |
| 20260830120304 | 23 | 158 | 9.7 | 17.7 | 0.00 | 0.00 | 0.00 | 68 | 1011.4 |
| 20260830115306 | 23 | 180 | 8.0 | 9.7 | 0.00 | 0.00 | 0.00 | 68 | 1011.5 |
| 20260830114304 | 24 | 180 | 11.3 | 19.3 | 0.00 | 0.00 | 0.00 | 68 | 1011.5 |
| 20260830113303 | 24 | 158 | 11.3 | 17.7 | 0.00 | 0.00 | 0.00 | 67 | 1011.4 |
| 20260830112306 | 24 | 158 | 9.7 | 17.7 | 0.00 | 0.00 | 0.00 | 67 | 1011.4 |
| 20260830111304 | 25 | 158 | 11.3 | 22.5 | 0.00 | 0.00 | 0.00 | 66 | 1011.4 |
| 20260830110303 | 25 | 180 | 12.9 | 27.4 | 0.00 | 0.00 | 0.00 | 66 | 1011.4 |
| 20260830105305 | 25 | 180 | 9.7 | 12.9 | 0.00 | 0.00 | 0.00 | 66 | 1011.4 |
| 20260830104303 | 25 | 203 | 12.9 | 19.3 | 0.00 | 0.00 | 0.00 | 66 | 1011.3 |